Weather observations for the past three days for
Americus Souther Field Airport
Imperial (Metric)
Date Time (edt) Wind (mph) Vis. (mi.) Weather Sky Cond. Temperature (ºF) Relative Humidity Wind Chill (°F) Heat Index (°F) Pressure Precipitation (in)
Air Dwpt 6 hour altimeter (in) sea level (mb) 1 hr 3 hr 6 hr
Max. Min.
04 16:35 Vrbl 3 10.00 Fair CLR 78.1 34.7 21% 78 29.96 0.0
04 16:15 Calm 10.00 Fair CLR 77.5 37.2 23% 77 29.96 0.0
04 15:55 Calm 10.00 Fair CLR 76.5 39 26% 77 29.97 0.0
04 15:35 S 9 9.00 Fair CLR 77.5 40.3 26% 78 29.97 0.0
04 15:15 SW 8 9.00 Fair CLR 77.5 41.2 27% 78 29.98 0.0
04 14:55 Calm 9.00 Fair CLR 76.8 39 26% 77 29.99 0.0
04 14:35 SE 8 9.00 Fair CLR 76.5 38.1 25% 77 30 0.0
04 14:15 Calm 10.00 Fair CLR 75.2 37.9 26% 77 30 0.0
04 13:55 Vrbl 5 9.00 Fair CLR 75.6 40.5 75.6 50.7 28% 77 30.01 0.0
04 13:35 Vrbl 5 9.00 Fair CLR 74.5 38.7 27% 30.01 0.0
04 13:15 Calm 10.00 A Few Clouds FEW370 73.6 37.9 27% 30.02 0.0
04 12:55 N 5 9.00 Fair CLR 74.1 38.7 28% 30.02 0.0
04 12:35 NW 8 9.00 Fair CLR 74.1 38.7 28% 30.03 0.0
04 12:15 Vrbl 3 10.00 Fair CLR 72.9 39.2 30% 30.04 0.0
04 11:55 Calm 9.00 Fair CLR 71.1 38.3 30% 30.05 0.0
04 11:35 Calm 9.00 Fair CLR 70.7 38.1 31% 30.05 0.0
04 11:15 Calm 10.00 Fair CLR 69.8 36.3 29% 30.06 0.0
04 10:55 W 3 9.00 Fair CLR 69.3 36.1 30% 30.06 0.0
04 10:35 Calm 9.00 Fair CLR 69.3 37.6 31% 30.06 0.0
04 10:15 Calm 9.00 Fair CLR 68.7 37.4 32% 30.06 0.0
04 09:55 Vrbl 3 10.00 Fair CLR 66.7 41.7 40% 30.06 0.0
04 09:35 Calm 10.00 Fair CLR 65.8 43.9 45% 30.06 0.0
04 09:15 Calm 10.00 Fair CLR 63 43.9 50% 30.06 0.0
04 08:55 N 3 10.00 Fair CLR 60.1 52 75% 30.06 0.0
04 08:35 Calm 10.00 Fair CLR 57 52.9 86% 30.06 0.0
04 08:15 Calm 10.00 Fair CLR 53.2 50.4 90% 30.05 0.0
04 07:55 Calm 10.00 Fair CLR 49.1 49.1 49.5 44.6 100% 30.05 0.0
04 07:35 Calm 10.00 Fair CLR 46.9 46.9 100% 30.05 0.0
04 07:15 Calm 10.00 Fair CLR 45.1 45.1 100% 30.05 0.0
04 06:55 Calm 10.00 Fair CLR 44.8 44.8 100% 30.03 0.0
04 06:35 Calm 10.00 Fair CLR 44.8 44.8 100% 30.03 0.0
04 06:15 Calm 10.00 Fair CLR 45.3 45.3 100% 30.04 0.0
04 05:55 Calm 10.00 Fair CLR 45.7 45.7 100% 30.04 0.0
04 05:35 Calm 10.00 Fair CLR 46 46 100% 30.04 0.0
04 05:15 Calm 10.00 Fair CLR 46.8 46.8 100% 30.03 0.0
04 04:55 Calm 10.00 Fair CLR 45.9 45.9 100% 30.04 0.0
04 04:35 Calm 10.00 Fair CLR 46.4 46.4 100% 30.04 0.0
04 04:15 Calm 10.00 Fair CLR 46.8 46.8 100% 30.04 0.0
04 03:55 Calm 10.00 Fair CLR 48.6 48 98% 30.04 0.0
04 03:35 Calm 10.00 Fair CLR 48.2 47.7 98% 30.04 0.0
04 03:15 Calm 10.00 Fair CLR 47.8 47.8 100% 30.04 0.0
04 02:55 Calm 10.00 Fair CLR 48 48 100% 30.05 0.0
04 02:35 Calm 10.00 Fair CLR 48.4 48.4 100% 30.06 0.0
04 02:15 Calm 10.00 Fair CLR 49.5 47.7 94% 30.06 0.0
04 01:55 Calm 10.00 Fair CLR 48.9 48.9 69.4 48.7 100% 30.06 0.0
04 01:35 Calm 10.00 Fair CLR 49.3 49.3 100% 30.07 0.0
04 01:15 Calm 10.00 Fair CLR 49.6 49.6 100% 30.07 0.0
04 00:55 Calm 10.00 Fair CLR 50.2 49.8 99% 30.07 0.0
04 00:35 Calm 10.00 Fair CLR 50.4 50.2 99% 30.06 0.0
04 00:15 Calm 10.00 Fair CLR 50.5 49.3 95% 30.06 0.0
03 23:55 Calm 10.00 Fair CLR 51.6 50.5 96% 30.06 0.0
03 23:35 Calm 10.00 Fair CLR 52.5 51.3 96% 30.06 0.0
03 23:15 Calm 10.00 Fair CLR 52.3 49.3 89% 30.06 0.0
03 22:55 Calm 10.00 Fair CLR 54 48.2 81% 30.06 0.0
03 22:35 Calm 10.00 Fair CLR 53.2 47.7 81% 30.05 0.0
03 22:15 Calm 10.00 Fair CLR 55.2 45 69% 30.05 0.0
03 21:55 Calm 10.00 Fair CLR 55.8 46.2 70% 30.04 0.0
03 21:35 Calm 10.00 Fair CLR 57 44.2 63% 30.03 0.0
03 21:15 Calm 10.00 Fair CLR 58.3 45 61% 30.02 0.0
03 20:55 Calm 10.00 Fair CLR 59.2 42.6 54% 30.02 0.0
03 20:35 Calm 9.00 Fair CLR 61.7 42.1 49% 30.01 0.0
03 20:15 Calm 8.00 Fair CLR 66.7 40.5 38% 30.01 0.0
03 19:55 W 5 9.00 Fair CLR 71.1 35.6 74.1 70.5 27% 30.01 0.0
03 19:35 W 5 9.00 Fair CLR 71.8 34 25% 30.01 0.0
03 19:15 W 3 9.00 Fair CLR 72.7 33.3 24% 30.01 0.0
03 18:55 NW 7 9.00 Fair CLR 72.5 33.6 24% 30.01 0.0
03 18:35 Calm 9.00 Fair CLR 72.9 32.7 23% 30.01 0.0
03 18:15 W 9 9.00 Fair CLR 73.4 32.9 23% 30.01 0.0
03 17:55 Calm 9.00 Fair CLR 73.6 31.8 22% 30.01 0.0
03 17:35 W 8 9.00 Fair CLR 73.9 30.7 20% 30.02 0.0
03 17:15 W 6 9.00 Fair CLR 73 32 22% 30.02 0.0
03 16:55 W 10 9.00 Fair CLR 73.4 33.3 23% 30.03 0.0
03 16:35 NW 8 9.00 Fair CLR 73 33.6 24% 30.03 0.0
03 16:15 Calm 9.00 Fair CLR 72.5 34.5 25% 30.04 0.0
03 15:55 Calm 9.00 Fair CLR 72.5 35.6 26% 30.04 0.0
03 15:35 Vrbl 5 9.00 Fair CLR 72 34 25% 30.05 0.0
03 14:55 NW 9 9.00 Fair CLR 71.4 33.8 25% 30.06 0.0
03 14:35 W 10 9.00 Fair CLR 71.2 34 25% 30.08 0.0
03 14:15 Vrbl 6 9.00 Fair CLR 70.9 35.6 27% 30.08 0.0
03 13:55 NW 10 9.00 Fair CLR 70.7 35.4 71.4 50.7 27% 30.09 0.0 0.02
03 13:35 Calm 9.00 Fair CLR 70.2 36.3 29% 30.1 0.0
03 13:15 W 9 9.00 A Few Clouds FEW340 69.8 36.3 29% 30.1 0.0
03 12:55 Vrbl 6 9.00 Fair CLR 68.4 36.5 31% 30.11 0.0 0.01
03 12:35 NW 10 9.00 Fair CLR 69.3 36 29% 30.11 0.0 0.01
03 12:15 NW 10 9.00 Fair CLR 68.4 36.5 31% 30.12 0.0 0.01
03 11:55 N 7 8.00 Fair CLR 68 36.1 31% 30.12 0.0
03 11:35 Vrbl 3 9.00 Fair CLR 66.4 34.7 31% 30.13 0.0
03 11:15 W 9 9.00 Fair CLR 66.4 36.5 33% 30.13 0.0
03 10:55 Vrbl 3 9.00 Fair CLR 65.7 38.5 37% 30.12 0.0 0.01 0.01
03 10:35 Vrbl 6 9.00 Fair CLR 64 39 40% 30.13 0.0 0.01
03 10:15 Vrbl 6 9.00 Fair CLR 62.6 41.4 46% 30.12 0.0 0.01
03 09:55 Calm 9.00 Fair CLR 60.3 43.3 54% 30.12 0.0
03 09:35 N 6 10.00 Fair CLR 59.4 42.8 54% 30.12 0.0
03 09:15 N 7 10.00 Fair CLR 57.9 43 58% 30.11 0.0
03 08:55 NE 6 10.00 Fair CLR 55.9 46.4 71% 30.12 0.0
03 08:35 Calm 10.00 Fair CLR 54.3 46 74% 30.11 0.0
03 08:15 Calm 10.00 Fair CLR 52 47.3 84% 30.11 0.0
03 07:55 N 3 10.00 Fair CLR 49.3 46.6 49.3 43.2 90% 30.09 0.0 0.01 0.04
03 07:35 Calm 10.00 Fair CLR 47.3 46 95% 30.09 0.0
03 07:15 Calm 10.00 Fair CLR 44.8 44.8 100% 30.08 0.0
03 06:55 Calm 9.00 Fair CLR 43.9 43.9 100% 30.07 0.0
03 06:35 Calm 10.00 Fair CLR 43.5 43.5 100% 30.06 0.0
03 06:15 Calm 10.00 Fair CLR 43.2 43.2 100% 30.06 0.0
03 05:55 Calm 10.00 Fair CLR 43.9 43.9 100% 30.06 0.0
03 05:35 Calm 10.00 Fair CLR 44.1 44.1 100% 30.05 0.0
03 05:15 Calm 10.00 Fair CLR 44.2 44.2 100% 30.05 0.0
03 04:55 Calm 10.00 Fair CLR 45.1 45.1 100% 30.05 0.0 0.02 0.03
03 04:35 Calm 10.00 Fair CLR 44.6 44.6 100% 30.05 0.0
03 04:15 Calm 10.00 Fair CLR 45.7 45.7 100% 30.05 0.0
03 03:55 Calm 10.00 Fair CLR 45.1 45.1 100% 30.04 0.0
03 03:35 Calm 10.00 Fair CLR 45.3 45.3 100% 30.03 0.0
03 03:15 Calm 10.00 Fair CLR 46 45.7 99% 30.03 0.0
03 02:55 Calm 10.00 Fair CLR 46.4 46.2 99% 30.03 0.0 0.01
03 02:35 Calm 10.00 Fair CLR 47.1 45.9 95% 30.02 0.0 0.01
03 02:15 Calm 10.00 Fair CLR 49.1 45.5 87% 30.02 0.0
03 01:55 Calm 10.00 Fair CLR 47.7 47.7 68 47.7 100% 30.02 0.0 0.03
03 01:35 Calm 10.00 Fair CLR 49.6 46.8 90% 30.02 0.0
03 01:15 Calm 10.00 Fair CLR 54.9 37.9 53% 30.01 0.0
03 00:55 NW 5 10.00 Fair CLR 55.2 38.1 53% 30.01 0.0 0.01
03 00:35 Calm 10.00 Fair CLR 50.5 46.6 86% 30.01 0.0 0.01
03 00:15 NW 3 10.00 Fair CLR 56.3 37.2 49% 30 0.0
02 23:55 NW 3 10.00 Fair CLR 56.8 37.6 49% 29.99 0.0
02 23:35 Calm 10.00 Fair CLR 57.2 37.4 48% 29.99 0.0
02 23:15 NW 5 10.00 Fair CLR 57.9 37 46% 29.99 0.0
02 22:55 NW 3 10.00 Fair CLR 58.5 36.9 45% 29.99 0.0 0.01 0.02
02 22:35 NW 3 10.00 Fair CLR 59.2 36.9 44% 29.98 0.0 0.01
02 22:15 N 3 10.00 Fair CLR 59.7 37 43% 29.97 0.0
02 21:55 NW 6 10.00 Fair CLR 61.2 36.7 40% 29.96 0.0 0.01
02 21:35 NW 6 10.00 Fair CLR 61.9 36.9 40% 29.95 0.0 0.01
02 21:15 NW 6 10.00 Fair CLR 62.8 37.9 40% 29.94 0.0 0.01
02 20:55 NW 5 10.00 Fair CLR 63.9 40.3 42% 29.92 0.0
02 20:35 NW 7 10.00 Fair CLR 65.1 40.5 41% 29.91 0.0
02 20:15 NW 7 10.00 Fair CLR 66.7 41.7 40% 29.9 0.0
02 19:55 NW 7 10.00 Mostly Cloudy BKN065 68.7 45.9 72.5 65.1 44% 29.88 0.0 0.01 0.09
02 19:35 NW 9 10.00 Mostly Cloudy BKN065 69.6 46.2 43% 29.87 0.0 0.01
02 19:15 NW 8 10.00 Partly Cloudy SCT070 69.4 47.8 46% 29.87 0.0
02 18:55 Vrbl 6 10.00 Mostly Cloudy BKN070 70.2 47.7 45% 29.86 0.0 0.01
02 18:35 NW 6 10.00 Partly Cloudy FEW060 SCT070 70 48 46% 29.86 0.0 0.01
02 18:15 NW 8 10.00 Mostly Cloudy SCT060 BKN070 70.9 46.9 43% 29.85 0.0
02 17:55 Vrbl 6 10.00 Mostly Cloudy FEW048 SCT065 BKN080 70.9 49.1 46% 29.85 0.0 0.01
02 17:35 NW 7 10.00 Mostly Cloudy FEW046 SCT055 BKN080 70.2 50 49% 29.85 0.0 0.01
02 17:15 NW 6 10.00 Overcast SCT049 BKN060 OVC080 70.9 51.1 50% 29.85 0.0
02 16:55 NW 6 10.00 Overcast FEW047 BKN060 OVC075 69.3 51.8 54% 29.85 0.0 0.02 0.06
02 16:35 NW 6 9.00 Overcast SCT047 OVC065 69.8 52 53% 29.85 0.0 0.01
02 16:15 N 7 9.00 Overcast BKN045 OVC060 69.1 50.7 52% 29.85 0.0 0.01
02 15:55 NW 8 10.00 Mostly Cloudy SCT040 BKN050 70.3 51.4 51% 29.86 0.0 0.02
02 15:35 Vrbl 6 9.00 Mostly Cloudy SCT039 BKN055 70.5 52.7 53% 29.86 0.0 0.02
02 15:15 N 10 9.00 Partly Cloudy FEW033 SCT045 68.5 51.6 55% 29.86 0.0 0.01
02 14:55 Vrbl 7 9.00 Mostly Cloudy SCT033 BKN080 68.4 54 60% 29.86 0.0 0.02
02 14:35 N 10 9.00 Overcast FEW031 OVC080 68 54 61% 29.86 0.0 0.02
02 14:15 N 6 10.00 Overcast FEW026 OVC075 66.4 56.8 72% 29.87 0.0 0.01
02 13:55 NW 8 10.00 Overcast FEW016 SCT023 OVC070 64.9 58.5 65.3 53.8 80% 29.88 0.0 0.03 0.19
02 13:35 N 9 10.00 Overcast SCT018 BKN023 OVC065 63.9 58.6 83% 29.88 0.0 0.02
02 13:15 N 7 10.00 Overcast FEW017 OVC060 62.1 58.6 89% 29.88 0.0 0.01
02 12:55 Calm 10.00 Overcast OVC055 60.8 58.3 91% 29.88 0.0 0.03
02 12:35 Calm 10.00 Overcast OVC050 59.7 57.7 93% 29.88 0.0 0.03
02 12:15 Calm 10.00 Overcast OVC050 59.2 58.6 98% 29.89 0.0 0.02
02 11:55 NW 5 10.00 Overcast BKN046 OVC060 57.9 57.9 100% 29.89 0.0 0.02
02 11:35 Vrbl 6 10.00 Overcast OVC045 57.6 57.6 100% 29.89 0.0 0.01
02 11:15 N 7 7.00 Light Rain FEW008 OVC044 56.8 56.8 100% 29.88 0.0 0.01
02 10:55 N 8 9.00 Light Rain OVC040 56.8 56.8 100% 29.88 0.0 0.03 0.11
02 10:35 NE 8 5.00 Light Rain Fog/Mist OVC039 56.8 56.8 100% 29.87 0.0 0.02
02 10:15 N 5 5.00 Light Rain Fog/Mist FEW007 OVC038 55.8 55.8 100% 29.89 0.0 0.01
02 09:55 N 6 7.00 Light Rain SCT005 OVC038 55.4 55.4 100% 29.87 0.0 0.04
02 09:35 N 5 8.00 Light Rain BKN005 OVC038 55.2 55.2 100% 29.87 0.0 0.03
02 09:15 N 7 7.00 Light Rain BKN005 OVC044 54.7 54.7 100% 29.87 0.0 0.02
02 08:55 NE 7 8.00 Light Rain FEW006 BKN037 OVC045 54.5 54.5 100% 29.86 0.0 0.04
02 08:35 Calm 6.00 Light Rain Fog/Mist OVC035 54.1 54.1 100% 29.89 0.0 0.03
02 08:15 Calm 6.00 Light Rain Fog/Mist OVC035 53.8 53.8 100% 29.9 0.0 0.02
02 07:55 N 3 3.00 Rain Fog/Mist FEW019 BKN035 OVC100 53.8 53.8 54.3 52.5 100% 29.87 0.0 0.04 0.27
02 07:35 Calm 7.00 Light Rain FEW020 SCT035 BKN100 53.8 53.8 100% 29.87 0.0 0.03
02 07:15 N 5 6.00 Light Rain Fog/Mist FEW026 BKN033 BKN044 OVC090 53.6 53.6 100% 29.86 0.0 0.02
02 06:55 N 3 5.00 Light Rain Fog/Mist OVC031 53.4 53.4 100% 29.86 0.0 0.04
02 06:35 N 8 6.00 Light Rain Fog/Mist BKN029 OVC035 53.4 53.4 100% 29.85 0.0 0.03
02 06:15 N 6 6.00 Rain Fog/Mist OVC027 53.4 53.4 100% 29.84 0.0 0.02
02 05:55 Vrbl 6 5.00 Rain Fog/Mist OVC025 53.6 53.6 100% 29.85 0.0 0.05
02 05:35 Calm 7.00 Light Rain OVC025 53.8 53.8 100% 29.85 0.0 0.04
02 05:15 N 5 6.00 Light Rain Fog/Mist OVC023 53.8 53.8 100% 29.84 0.0 0.02
02 04:55 NE 7 10.00 Light Rain OVC022 53.2 53.2 100% 29.84 0.0 0.04 0.14
02 04:35 NE 9 9.00 Light Rain OVC022 53.1 53.1 100% 29.83 0.0 0.03
02 04:15 NE 6 8.00 Light Rain OVC023 53.1 53.1 100% 29.85 0.0 0.02
02 03:55 N 5 6.00 Light Rain Fog/Mist BKN023 OVC085 53.1 53.1 100% 29.87 0.0 0.05
02 03:35 N 5 4.00 Light Rain Fog/Mist FEW023 OVC085 52.9 52.9 100% 29.87 0.0 0.04
02 03:15 Vrbl 3 4.00 Rain Fog/Mist SCT023 OVC080 52.7 52.7 100% 29.87 0.0 0.02
02 02:55 Calm 5.00 Rain Fog/Mist SCT024 OVC085 52.5 52.5 100% 29.87 0.0 0.05
02 02:35 N 5 4.00 Rain Fog/Mist OVC085 52.7 52.7 100% 29.87 0.0 0.03
02 02:15 N 6 5.00 Rain Fog/Mist OVC085 53.4 53.4 100% 29.89 0.0 0.02
02 01:55 N 8 4.00 Rain Fog/Mist OVC075 55.4 55.4 61 55.4 100% 29.9 0.0 0.05 0.16
02 01:35 NW 3 4.00 Rain Fog/Mist OVC075 55.8 55.8 100% 29.91 0.0 0.03
02 01:15 W 5 4.00 Rain Fog/Mist OVC080 55.8 55.8 100% 29.92 0.0 0.02
02 00:55 NW 3 6.00 Light Rain Fog/Mist OVC090 56.1 56.1 100% 29.9 0.0 0.04
02 00:35 N 3 5.00 Light Rain Fog/Mist FEW070 OVC090 56.7 56.7 100% 29.9 0.0 0.03
02 00:15 NW 3 6.00 Light Rain Fog/Mist OVC085 57.2 57.2 100% 29.9 0.0 0.02
01 23:55 N 5 6.00 Light Rain Fog/Mist OVC090 58.1 58.1 100% 29.9 0.0 0.02
01 23:35 NW 5 7.00 Light Rain OVC090 59 59 100% 29.9 0.0 0.02
01 23:15 Vrbl 5 5.00 Rain Fog/Mist FEW046 OVC090 59.7 59.7 100% 29.9 0.0 0.01
01 22:55 W 6 7.00 Light Rain FEW090 60.4 60.4 100% 29.91 0.0 0.02 0.05
01 22:35 NW 5 7.00 Light Rain FEW036 BKN095 60.4 60.4 100% 29.9 0.0 0.01
01 22:15 W 5 6.00 Light Rain Fog/Mist SCT080 OVC095 60.8 60.8 100% 29.9 0.0
01 21:55 W 7 10.00 Mostly Cloudy BKN080 60.8 60.8 100% 29.91 0.0 0.02
01 21:35 W 5 10.00 A Few Clouds FEW033 60.8 60.8 100% 29.88 0.0 0.02
01 21:15 Calm 8.00 Light Rain FEW033 SCT080 BKN100 60.4 60.4 100% 29.87 0.0 0.01
01 20:55 Calm 7.00 Light Rain FEW031 SCT055 SCT075 OVC095 60.3 60.3 100% 29.86 0.0 0.01
01 20:35 Calm 7.00 Light Rain SCT055 SCT070 OVC095 59.9 59.9 100% 29.87 0.0 0.01
01 20:15 Calm 4.00 Light Rain Fog/Mist FEW049 SCT070 OVC090 60.6 60.6 100% 29.88 0.0
01 19:55 SW 3 7.00 Light Rain FEW050 BKN090 OVC110 60.8 60.8 66.9 60.8 100% 29.88 0.0
01 19:35 S 3 7.00 Light Rain OVC100 61.9 60.1 94% 29.87 0.0
01 19:15 W 6 10.00 Partly Cloudy SCT100 62.8 59.5 89% 29.88 0.0
01 18:55 S 3 10.00 Partly Cloudy SCT130 62.6 59.7 90% 29.87 0.0
01 18:35 SW 6 10.00 Mostly Cloudy FEW065 SCT110 BKN130 62.8 58.6 86% 29.87 0.0
01 18:15 SW 3 10.00 Overcast FEW055 SCT070 BKN100 OVC120 63.3 57.6 82% 29.86 0.0
01 17:55 Calm 7.00 Light Rain FEW065 OVC100 63.7 58.3 83% 29.86 0.0
01 17:35 W 3 9.00 Light Rain BKN100 63.9 54.1 71% 29.86 0.0
01 17:15 Calm 10.00 Mostly Cloudy BKN100 64.2 52 65% 29.86 0.0
01 16:55 W 3 10.00 A Few Clouds FEW110 64.2 50.9 62% 29.87 0.0
Date Time (edt) Wind (mph) Vis. (mi.) Weather Sky Cond. Air Dwpt Max. Min. Relative Humidity Wind Chill (°F) Heat Index (°F) altimeter (in) sea level (mb) 1 hr 3 hr 6 hr
6 hour
Temperature (ºF) Pressure Precipitation (in)